Pays
Station

 

Conditions  météo  pour  Brno/Turany  -  République Tchèque    République Tchèque

  
2 °C
    
 
 

METAR pour Brno/Turany :

LKTB 211900Z 25003KT CAVOK 02/M02 Q1028 NOSIG

 

Voici le bulletin pour Brno/Turany - République Tchèque.
 
Le bulletin a été fait il y a 10 minutes, à 19:00 UTC .
Le vent soufflait à la vitesse de 1.5 mètres par seconde de Ouest/Sud-ouest (250°).
 
La température était de 2 °C, avec un point de rosée à -2 °C.
La température ressentie était de 0 °C.
 
La pression atmosphérique était de 1028 hPa.
L'humidité relative était de 74.7%.
 
Il y avait pas de nuages en-dessous de 1500 mètres et pas de cumulonimbus.
 
La visibilité globale était de supérieure à 10 kilomètres.
 

 
 
 

Pays :   A   B   C   D   E   F   G   H   I   J   K   L   M   N   O   P   Q   R   S   T   U   V   W   Y   Z

 

Partenaires :  Info Météo avec Met'info
Météo Marine avec MeteoMarine.net
Infos Site  |  Infos Légales  |  Crédits  |  Confidentialité
Contactez-nous  |  Ajouter aux favoris
© 2013-2020 METAR - Tous droits réservés